Time;durP1;ratioP1;P1;durP2;ratioP2;P2;SDS_P1;SDS_P2;PMS_P1;PMS_P2;Temp;Humidity;BMP_temperature;BMP_pressure;BME280_temperature;BME280_humidity;BME280_pressure;Samples;Min_cycle;Max_cycle;Signal;HPM_P1;HPM_P2
2023/12/12 00:02:18;;;;;;;5.28;2.13;;;8.70;99.90;;;;;;5032948;28;20402;-39
2023/12/12 00:04:43;;;;;;;4.75;1.98;;;8.60;99.90;;;;;;5033223;28;20048;-40
2023/12/12 00:07:09;;;;;;;11.07;1.98;;;8.60;99.90;;;;;;5032932;28;20387;-39
2023/12/12 00:09:35;;;;;;;4.32;1.58;;;8.60;99.90;;;;;;5032934;28;20018;-39
2023/12/12 00:12:00;;;;;;;6.20;1.73;;;8.50;99.90;;;;;;5033126;28;20041;-38
2023/12/12 00:14:26;;;;;;;5.60;1.67;;;8.50;99.90;;;;;;5032713;28;20029;-40
2023/12/12 00:16:51;;;;;;;2.70;1.40;;;8.40;99.90;;;;;;5032895;28;20032;-38
2023/12/12 00:19:17;;;;;;;12.13;1.67;;;8.40;99.90;;;;;;5033075;28;20478;-40
2023/12/12 00:21:43;;;;;;;6.78;2.28;;;8.40;99.90;;;;;;5032929;28;20045;-43
2023/12/12 00:24:08;;;;;;;6.90;1.48;;;8.40;99.90;;;;;;5032428;28;20479;-39
2023/12/12 00:26:34;;;;;;;5.38;1.30;;;8.30;99.90;;;;;;5032790;28;20032;-39
2023/12/12 00:29:00;;;;;;;5.18;1.75;;;8.30;99.90;;;;;;5033058;28;20021;-40
2023/12/12 00:31:26;;;;;;;8.32;1.95;;;8.20;99.90;;;;;;5032697;28;20028;-40
2023/12/12 00:33:51;;;;;;;16.20;3.80;;;8.10;99.90;;;;;;5032654;28;20017;-39
2023/12/12 00:36:17;;;;;;;2.45;1.30;;;8.10;99.90;;;;;;5031672;28;20024;-40
2023/12/12 00:38:43;;;;;;;3.17;1.45;;;8.00;99.90;;;;;;5031921;28;20029;-39
2023/12/12 00:41:08;;;;;;;5.20;1.42;;;7.90;99.90;;;;;;5032700;28;20391;-40
2023/12/12 00:43:34;;;;;;;16.75;2.50;;;7.80;99.90;;;;;;5032907;28;20115;-39
2023/12/12 00:46:00;;;;;;;8.20;1.52;;;7.80;99.90;;;;;;5032611;28;20021;-38
2023/12/12 00:48:25;;;;;;;13.07;1.85;;;7.70;99.90;;;;;;5018636;28;20068;-40
2023/12/12 00:50:51;;;;;;;8.75;1.13;;;7.70;99.90;;;;;;5032534;28;20419;-40
2023/12/12 00:53:17;;;;;;;7.55;1.40;;;7.70;99.90;;;;;;5032794;28;20064;-45
2023/12/12 00:55:43;;;;;;;12.10;1.50;;;7.70;99.90;;;;;;5032280;28;20017;-39
2023/12/12 00:58:08;;;;;;;7.13;1.70;;;7.60;99.90;;;;;;5032401;28;20029;-39
2023/12/12 01:00:34;;;;;;;4.00;1.92;;;7.60;99.90;;;;;;5030722;28;20029;-41
2023/12/12 01:03:00;;;;;;;4.80;1.30;;;7.50;99.90;;;;;;5032258;28;20033;-53
2023/12/12 01:05:26;;;;;;;7.47;1.70;;;7.50;99.90;;;;;;5032404;28;20029;-38
2023/12/12 01:07:51;;;;;;;11.90;1.48;;;7.50;99.90;;;;;;5031825;28;20036;-39
2023/12/12 01:10:17;;;;;;;7.00;1.77;;;7.40;99.90;;;;;;5031653;28;20025;-41
2023/12/12 01:12:43;;;;;;;7.00;1.73;;;7.40;99.90;;;;;;5031865;28;20030;-38
2023/12/12 01:15:09;;;;;;;3.97;1.45;;;7.30;99.90;;;;;;5030815;28;20484;-40
2023/12/12 01:17:34;;;;;;;1.50;1.40;;;7.30;99.90;;;;;;5032548;28;20124;-43
2023/12/12 01:20:00;;;;;;;6.68;1.60;;;7.30;99.90;;;;;;5031979;28;20455;-42
2023/12/12 01:22:26;;;;;;;7.35;1.80;;;7.30;99.90;;;;;;5032114;28;20462;-41
2023/12/12 01:24:51;;;;;;;9.48;1.95;;;7.20;99.90;;;;;;5032468;28;20026;-40
2023/12/12 01:27:17;;;;;;;3.97;1.60;;;7.20;99.90;;;;;;5032389;28;20032;-39
2023/12/12 01:29:43;;;;;;;7.47;1.83;;;7.10;99.90;;;;;;5035723;28;20025;-38
2023/12/12 01:32:09;;;;;;;7.07;1.75;;;7.10;99.90;;;;;;5036439;28;20060;-40
2023/12/12 01:34:34;;;;;;;7.47;1.70;;;7.10;99.90;;;;;;5034627;28;20087;-40
2023/12/12 01:37:00;;;;;;;5.50;1.48;;;7.10;99.90;;;;;;5036408;28;20021;-54
2023/12/12 01:39:26;;;;;;;4.95;1.80;;;7.10;99.90;;;;;;5036501;28;20072;-54
2023/12/12 01:41:52;;;;;;;2.97;1.40;;;7.00;99.90;;;;;;5035803;28;20030;-53
2023/12/12 01:44:18;;;;;;;6.45;2.10;;;7.00;99.90;;;;;;5035837;28;20791;-57
2023/12/12 01:46:45;;;;;;;4.15;1.45;;;7.00;99.90;;;;;;5035682;28;20064;-54
2023/12/12 01:49:12;;;;;;;6.37;1.97;;;7.00;99.90;;;;;;5035605;28;20038;-54
2023/12/12 01:51:38;;;;;;;2.47;1.40;;;7.00;99.90;;;;;;5036085;28;20037;-54
2023/12/12 01:54:06;;;;;;;5.50;2.03;;;7.00;99.90;;;;;;5035150;28;20554;-53
2023/12/12 01:56:33;;;;;;;10.95;1.50;;;7.00;99.90;;;;;;5025089;28;20480;-54
2023/12/12 01:58:59;;;;;;;4.53;1.70;;;7.00;99.90;;;;;;5036020;28;20502;-55
2023/12/12 02:01:27;;;;;;;7.35;1.50;;;7.00;99.90;;;;;;5036010;28;20498;-53
2023/12/12 02:03:56;;;;;;;11.53;2.27;;;7.00;99.90;;;;;;5034284;28;20022;-54
2023/12/12 02:06:22;;;;;;;4.53;1.58;;;7.00;99.90;;;;;;5034253;28;20483;-39
2023/12/12 02:08:52;;;;;;;10.00;2.10;;;6.90;99.90;;;;;;5035905;28;20026;-39
2023/12/12 02:11:18;;;;;;;4.03;1.70;;;6.90;99.90;;;;;;5035785;28;20510;-53
2023/12/12 02:13:44;;;;;;;5.07;1.85;;;6.90;99.90;;;;;;5033943;28;20025;-54
2023/12/12 02:16:12;;;;;;;6.35;1.70;;;6.90;99.90;;;;;;5035148;28;20511;-55
2023/12/12 02:18:38;;;;;;;3.90;2.08;;;6.90;99.90;;;;;;5034752;28;20124;-53
2023/12/12 02:21:04;;;;;;;6.85;1.60;;;6.90;99.90;;;;;;5034792;28;20482;-54
2023/12/12 02:23:30;;;;;;;4.95;1.65;;;6.90;99.90;;;;;;5032520;28;20045;-53
2023/12/12 02:25:56;;;;;;;6.15;2.42;;;6.90;99.90;;;;;;5034118;28;20021;-54
2023/12/12 02:28:22;;;;;;;3.78;1.98;;;7.00;99.90;;;;;;5034919;28;20552;-54
2023/12/12 02:30:49;;;;;;;8.30;3.00;;;7.10;99.90;;;;;;5033791;28;20049;-54
2023/12/12 02:33:15;;;;;;;10.77;1.90;;;7.10;99.90;;;;;;5033972;28;20041;-54
2023/12/12 02:35:40;;;;;;;8.98;1.95;;;7.10;99.90;;;;;;5034751;28;20471;-54
2023/12/12 02:38:06;;;;;;;9.32;2.42;;;7.20;99.90;;;;;;5032987;28;20475;-53
2023/12/12 02:40:32;;;;;;;6.18;2.38;;;7.20;99.90;;;;;;5032984;28;20029;-55
2023/12/12 02:42:57;;;;;;;4.88;2.40;;;7.30;99.90;;;;;;5034625;28;20021;-54
2023/12/12 02:45:23;;;;;;;4.53;2.72;;;7.30;99.90;;;;;;5033376;28;20127;-55
2023/12/12 02:47:50;;;;;;;10.93;3.00;;;7.40;99.90;;;;;;5032815;28;20471;-55
2023/12/12 02:50:19;;;;;;;20.75;3.83;;;7.40;99.90;;;;;;5033605;28;20026;-55
2023/12/12 02:52:46;;;;;;;7.30;2.72;;;7.50;99.90;;;;;;5034499;28;20032;-53
2023/12/12 02:55:11;;;;;;;3.47;2.83;;;7.50;99.90;;;;;;5034880;28;20513;-53
2023/12/12 02:57:37;;;;;;;9.07;3.00;;;7.60;99.90;;;;;;5034368;28;20021;-54
2023/12/12 03:00:03;;;;;;;14.93;3.78;;;7.60;99.90;;;;;;5034607;28;20034;-53
2023/12/12 03:02:30;;;;;;;14.30;3.45;;;7.60;99.90;;;;;;5034401;28;20555;-51
2023/12/12 03:04:57;;;;;;;13.75;4.40;;;7.60;99.90;;;;;;5031967;28;20017;-39
2023/12/12 03:07:23;;;;;;;8.82;4.07;;;7.60;99.90;;;;;;5033296;28;20393;-39
2023/12/12 03:09:49;;;;;;;16.50;4.38;;;7.60;99.90;;;;;;5034395;28;20029;-38
2023/12/12 03:12:15;;;;;;;9.82;4.45;;;7.60;99.90;;;;;;5034513;28;20524;-38
2023/12/12 03:14:41;;;;;;;7.80;3.97;;;7.60;99.90;;;;;;5034741;28;20037;-38
2023/12/12 03:17:07;;;;;;;17.45;4.82;;;7.60;99.90;;;;;;5034126;28;20029;-38
2023/12/12 03:19:32;;;;;;;19.88;5.57;;;7.60;99.90;;;;;;5034238;28;20430;-42
2023/12/12 03:21:58;;;;;;;14.77;5.25;;;7.60;99.90;;;;;;5033925;28;20164;-41
2023/12/12 03:24:24;;;;;;;10.38;4.78;;;7.50;99.90;;;;;;5034204;28;20067;-52
2023/12/12 03:26:49;;;;;;;9.52;4.75;;;7.50;99.90;;;;;;5034341;28;20025;-54
2023/12/12 03:29:15;;;;;;;14.98;5.18;;;7.50;99.90;;;;;;5033105;28;20183;-51
2023/12/12 03:31:41;;;;;;;17.95;4.88;;;7.40;99.90;;;;;;5033937;28;20087;-60
2023/12/12 03:34:07;;;;;;;14.55;5.70;;;7.40;99.90;;;;;;5049474;28;20087;-54
2023/12/12 03:36:34;;;;;;;22.67;5.88;;;7.40;99.90;;;;;;5014353;28;20025;-39
2023/12/12 03:39:00;;;;;;;9.82;4.93;;;7.40;99.90;;;;;;5012982;28;20444;-41
2023/12/12 03:41:27;;;;;;;12.60;5.72;;;7.40;99.90;;;;;;5020018;28;20061;-40
2023/12/12 03:43:53;;;;;;;20.75;5.25;;;7.40;99.90;;;;;;5034034;28;20518;-38
2023/12/12 03:46:20;;;;;;;20.42;6.35;;;7.40;99.90;;;;;;5033617;28;20021;-38
2023/12/12 03:48:46;;;;;;;18.00;5.87;;;7.50;99.90;;;;;;5033793;28;20029;-42
2023/12/12 03:51:12;;;;;;;20.90;6.88;;;7.50;99.90;;;;;;5032580;28;20037;-39
2023/12/12 03:53:39;;;;;;;14.15;6.50;;;7.60;99.90;;;;;;5033675;28;20402;-40
2023/12/12 03:56:06;;;;;;;16.15;6.13;;;7.60;99.90;;;;;;5033275;28;20021;-39
2023/12/12 03:58:32;;;;;;;29.33;7.40;;;7.60;99.90;;;;;;5033698;28;20568;-40
2023/12/12 04:00:57;;;;;;;17.60;6.53;;;7.60;99.90;;;;;;5033162;28;20101;-39
2023/12/12 04:03:23;;;;;;;12.27;6.35;;;7.50;99.90;;;;;;5033981;28;20021;-39
2023/12/12 04:05:49;;;;;;;22.02;7.15;;;7.50;99.90;;;;;;5033428;28;20026;-39
2023/12/12 04:08:14;;;;;;;14.65;6.35;;;7.40;99.90;;;;;;5015378;28;20032;-39
2023/12/12 04:10:40;;;;;;;16.00;7.80;;;7.30;99.90;;;;;;5033057;28;20022;-39
2023/12/12 04:13:06;;;;;;;23.50;8.75;;;7.30;99.90;;;;;;5033630;28;20543;-53
2023/12/12 04:15:32;;;;;;;28.38;8.07;;;7.30;99.90;;;;;;5033053;28;20046;-53
2023/12/12 04:17:57;;;;;;;25.42;7.32;;;7.30;99.90;;;;;;5032068;28;20407;-50
2023/12/12 04:20:23;;;;;;;13.48;6.85;;;7.20;99.90;;;;;;5030922;28;20108;-53
2023/12/12 04:22:49;;;;;;;29.10;7.80;;;7.20;99.90;;;;;;5032765;28;20069;-53
2023/12/12 04:25:15;;;;;;;24.02;8.35;;;7.20;99.90;;;;;;5033350;28;20026;-54
2023/12/12 04:27:40;;;;;;;21.13;7.10;;;7.20;99.90;;;;;;5032591;28;20543;-53
2023/12/12 04:30:06;;;;;;;23.17;8.38;;;7.20;99.90;;;;;;5032773;28;20483;-55
2023/12/12 04:32:33;;;;;;;17.60;6.55;;;7.20;99.90;;;;;;5031483;28;20029;-54
2023/12/12 04:35:04;;;;;;;16.67;6.95;;;7.20;99.90;;;;;;5032942;28;20022;-55
2023/12/12 04:37:30;;;;;;;25.42;7.90;;;7.20;99.90;;;;;;5032358;28;20064;-54
2023/12/12 04:39:55;;;;;;;16.23;6.90;;;7.30;99.90;;;;;;5033114;28;20052;-55
2023/12/12 04:42:23;;;;;;;19.80;7.13;;;7.30;99.90;;;;;;5032867;28;20045;-55
2023/12/12 04:44:49;;;;;;;18.23;7.40;;;7.40;99.90;;;;;;5032621;28;20029;-56
2023/12/12 04:47:14;;;;;;;21.60;7.00;;;7.40;99.90;;;;;;5032096;28;20395;-54
2023/12/12 04:49:40;;;;;;;28.25;7.32;;;7.50;99.90;;;;;;5032891;28;20111;-56
2023/12/12 04:52:06;;;;;;;20.73;6.55;;;7.40;99.90;;;;;;5032831;28;20036;-57
2023/12/12 04:54:31;;;;;;;17.92;6.03;;;7.30;99.90;;;;;;5032807;28;20119;-53
2023/12/12 04:56:58;;;;;;;15.45;6.60;;;7.20;99.90;;;;;;5032514;28;20472;-54
2023/12/12 04:59:23;;;;;;;23.23;6.25;;;7.20;99.90;;;;;;5032328;28;20430;-54
2023/12/12 05:01:49;;;;;;;19.13;6.88;;;7.10;99.90;;;;;;5032185;28;20026;-53
2023/12/12 05:04:15;;;;;;;15.43;6.55;;;7.00;99.90;;;;;;5032699;28;20460;-54
2023/12/12 05:06:41;;;;;;;18.33;6.95;;;6.90;99.90;;;;;;5032148;28;20091;-55
2023/12/12 05:09:07;;;;;;;13.23;6.28;;;6.90;99.90;;;;;;5032606;28;20534;-53
2023/12/12 05:11:33;;;;;;;14.85;7.18;;;6.90;99.90;;;;;;5031961;28;20033;-53
2023/12/12 05:13:59;;;;;;;20.08;6.75;;;6.80;99.90;;;;;;5032530;28;20484;-51
2023/12/12 05:16:24;;;;;;;20.55;7.07;;;6.80;99.90;;;;;;5031635;28;20422;-51
2023/12/12 05:18:52;;;;;;;23.30;7.85;;;6.90;99.90;;;;;;5032539;28;20029;-54
2023/12/12 05:21:21;;;;;;;18.35;7.38;;;7.00;99.90;;;;;;5032413;28;20484;-54
2023/12/12 05:23:50;;;;;;;14.70;6.93;;;7.00;99.90;;;;;;5032471;28;20030;-60
2023/12/12 05:26:18;;;;;;;27.08;8.05;;;7.10;99.90;;;;;;5032470;28;20487;-55
2023/12/12 05:28:44;;;;;;;25.55;7.47;;;7.10;99.90;;;;;;5032441;28;20017;-54
2023/12/12 05:31:10;;;;;;;15.48;7.07;;;7.10;99.90;;;;;;5030914;28;20467;-52
2023/12/12 05:33:35;;;;;;;30.30;7.43;;;7.20;99.90;;;;;;5032109;28;20036;-55
2023/12/12 05:36:01;;;;;;;23.35;7.68;;;7.10;99.90;;;;;;5032273;28;20539;-54
2023/12/12 05:38:26;;;;;;;18.27;7.80;;;7.10;99.90;;;;;;5032346;28;20029;-55
2023/12/12 05:40:52;;;;;;;29.20;8.25;;;7.20;99.90;;;;;;5031421;28;20029;-51
2023/12/12 05:43:18;;;;;;;25.02;8.65;;;7.20;99.90;;;;;;5031831;28;20499;-54
2023/12/12 05:45:45;;;;;;;33.65;9.65;;;7.30;99.90;;;;;;5031579;28;20021;-55
2023/12/12 05:48:10;;;;;;;29.33;9.00;;;7.30;99.90;;;;;;5032516;28;20045;-55
2023/12/12 05:50:36;;;;;;;20.45;8.07;;;7.30;99.90;;;;;;5031805;28;20521;-54
2023/12/12 05:53:02;;;;;;;30.35;9.07;;;7.20;99.90;;;;;;5032067;28;20437;-52
2023/12/12 05:55:28;;;;;;;26.67;8.23;;;7.30;99.90;;;;;;5032232;28;20068;-54
2023/12/12 05:57:54;;;;;;;23.08;9.10;;;7.30;99.90;;;;;;5031018;28;20386;-54
2023/12/12 06:00:20;;;;;;;39.95;9.45;;;7.30;99.90;;;;;;5031629;28;20029;-56
2023/12/12 06:02:45;;;;;;;31.45;10.02;;;7.30;99.90;;;;;;5032154;28;20029;-52
2023/12/12 06:05:11;;;;;;;26.35;10.32;;;7.30;99.90;;;;;;5032155;28;20491;-53
2023/12/12 06:07:38;;;;;;;31.70;8.57;;;7.40;99.90;;;;;;5032387;28;20076;-54
2023/12/12 06:10:08;;;;;;;29.13;9.05;;;7.40;99.90;;;;;;5031593;28;20442;-52
2023/12/12 06:12:34;;;;;;;36.67;10.50;;;7.40;99.90;;;;;;5031949;28;20541;-54
2023/12/12 06:15:00;;;;;;;19.55;8.77;;;7.40;99.90;;;;;;5034557;28;20041;-51
2023/12/12 06:17:26;;;;;;;31.92;9.40;;;7.40;99.90;;;;;;5035570;28;20032;-54
2023/12/12 06:19:52;;;;;;;24.20;8.68;;;7.30;99.90;;;;;;5034814;28;20029;-53
2023/12/12 06:22:18;;;;;;;20.77;8.02;;;7.30;99.90;;;;;;5035332;28;20045;-54
2023/12/12 06:24:45;;;;;;;23.83;7.93;;;7.20;99.90;;;;;;5035474;28;20029;-54
2023/12/12 06:27:12;;;;;;;32.38;7.85;;;7.20;99.90;;;;;;5034987;28;20018;-54
2023/12/12 06:29:38;;;;;;;23.13;8.25;;;7.20;99.90;;;;;;5034406;28;20104;-54
2023/12/12 06:32:04;;;;;;;31.55;8.15;;;7.30;99.90;;;;;;5035195;28;20056;-57
2023/12/12 06:34:29;;;;;;;30.00;9.02;;;7.30;99.90;;;;;;5035133;28;20037;-54
2023/12/12 06:36:55;;;;;;;36.00;8.52;;;7.30;99.90;;;;;;5035149;28;20021;-54
2023/12/12 06:39:21;;;;;;;26.77;9.90;;;7.30;99.90;;;;;;5033336;28;20041;-54
2023/12/12 06:41:46;;;;;;;32.60;8.52;;;7.40;99.90;;;;;;5035174;28;20022;-56
2023/12/12 06:44:13;;;;;;;28.05;8.32;;;7.50;99.90;;;;;;5034851;28;20503;-54
2023/12/12 06:46:39;;;;;;;32.80;8.02;;;7.40;99.90;;;;;;5034922;28;20022;-54
2023/12/12 06:49:07;;;;;;;25.42;8.45;;;7.30;99.90;;;;;;5032980;28;20404;-54
2023/12/12 06:51:33;;;;;;;23.65;7.30;;;7.30;99.90;;;;;;5034180;28;20057;-54
2023/12/12 06:53:59;;;;;;;23.23;7.63;;;7.40;99.90;;;;;;5035121;28;20018;-55
2023/12/12 06:56:28;;;;;;;28.45;8.45;;;7.40;99.90;;;;;;5035145;28;20591;-55
2023/12/12 06:58:54;;;;;;;31.52;8.70;;;7.50;99.90;;;;;;5034396;28;20527;-54
2023/12/12 07:01:20;;;;;;;16.80;7.03;;;7.60;99.90;;;;;;5033259;28;20163;-54
2023/12/12 07:03:46;;;;;;;15.98;6.00;;;7.60;99.90;;;;;;5033113;28;20384;-56
2023/12/12 07:06:11;;;;;;;27.38;6.88;;;7.60;99.90;;;;;;5033409;28;20036;-55
2023/12/12 07:08:37;;;;;;;29.23;7.85;;;7.60;99.90;;;;;;5034620;28;20025;-57
2023/12/12 07:11:03;;;;;;;18.88;6.78;;;7.60;99.90;;;;;;5033421;28;20025;-56
2023/12/12 07:13:28;;;;;;;24.55;6.78;;;7.60;99.90;;;;;;5034336;28;20091;-56
2023/12/12 07:15:54;;;;;;;17.02;6.78;;;7.60;99.90;;;;;;5034088;28;20109;-53
2023/12/12 07:18:20;;;;;;;27.95;5.97;;;7.50;99.90;;;;;;5033969;28;20060;-59
2023/12/12 07:20:46;;;;;;;23.50;7.20;;;7.60;99.90;;;;;;5032040;28;20478;-55
2023/12/12 07:23:12;;;;;;;22.58;6.53;;;7.50;99.90;;;;;;5032634;28;20136;-53
2023/12/12 07:25:38;;;;;;;18.67;6.07;;;7.50;99.90;;;;;;5031884;28;20018;-55
2023/12/12 07:28:04;;;;;;;21.58;6.43;;;7.60;99.90;;;;;;5033821;28;20030;-56
2023/12/12 07:30:32;;;;;;;15.18;5.78;;;7.70;99.90;;;;;;5032463;28;20057;-55
2023/12/12 07:32:58;;;;;;;11.77;5.45;;;7.80;99.90;;;;;;5032924;28;20022;-55
2023/12/12 07:35:24;;;;;;;7.25;5.65;;;7.80;99.90;;;;;;5032806;28;20472;-54
2023/12/12 07:37:50;;;;;;;13.00;5.35;;;7.90;99.90;;;;;;5032659;28;20440;-53
2023/12/12 07:40:16;;;;;;;10.07;5.40;;;7.90;99.90;;;;;;5033859;28;20112;-53
2023/12/12 07:42:41;;;;;;;13.90;5.55;;;7.90;99.90;;;;;;5033886;28;20108;-54
2023/12/12 07:45:08;;;;;;;9.93;5.18;;;7.80;99.90;;;;;;5033636;28;20444;-54
2023/12/12 07:47:34;;;;;;;8.00;4.40;;;7.80;99.90;;;;;;5033564;28;20048;-51
2023/12/12 07:49:59;;;;;;;8.20;4.20;;;7.90;99.90;;;;;;5033689;28;20029;-52
2023/12/12 07:52:26;;;;;;;8.85;4.10;;;7.90;99.90;;;;;;5032545;28;20491;-47
2023/12/12 07:54:52;;;;;;;11.18;4.25;;;7.90;99.90;;;;;;5033738;28;20025;-52
2023/12/12 07:57:18;;;;;;;9.02;4.50;;;8.00;99.90;;;;;;5033583;28;20036;-53
2023/12/12 07:59:44;;;;;;;13.40;4.63;;;8.00;99.90;;;;;;5033292;28;20467;-54
2023/12/12 08:02:10;;;;;;;9.70;4.30;;;8.00;99.90;;;;;;5033517;28;20024;-53
2023/12/12 08:04:36;;;;;;;9.85;4.75;;;8.00;99.90;;;;;;5033380;28;20025;-53
2023/12/12 08:07:03;;;;;;;11.95;4.72;;;8.00;99.90;;;;;;5033585;28;20017;-50
2023/12/12 08:09:29;;;;;;;12.45;4.32;;;8.10;99.90;;;;;;5032778;28;20446;-45
2023/12/12 08:11:55;;;;;;;14.82;5.40;;;8.00;99.90;;;;;;5031211;28;20021;-50
2023/12/12 08:14:21;;;;;;;14.90;5.47;;;8.10;99.90;;;;;;5032770;28;20490;-48
2023/12/12 08:16:47;;;;;;;12.70;5.07;;;8.10;99.90;;;;;;5032845;28;20092;-47
2023/12/12 08:19:13;;;;;;;14.30;4.78;;;8.10;99.90;;;;;;5032471;28;20163;-48
2023/12/12 08:21:40;;;;;;;15.10;5.30;;;8.10;99.90;;;;;;5033005;28;20512;-55
2023/12/12 08:24:06;;;;;;;14.73;5.97;;;8.10;99.90;;;;;;5033196;28;20024;-53
2023/12/12 08:26:50;;;;;;;26.42;7.40;;;8.20;99.90;;;;;;5033157;28;20496;-53
2023/12/12 08:29:16;;;;;;;16.63;6.57;;;8.20;99.90;;;;;;5031947;28;20479;-51
2023/12/12 08:31:42;;;;;;;16.67;7.20;;;8.10;99.90;;;;;;5033099;28;20079;-52
2023/12/12 08:34:07;;;;;;;20.67;7.00;;;8.10;99.90;;;;;;5033299;28;20029;-53
2023/12/12 08:36:34;;;;;;;24.58;7.22;;;8.20;99.90;;;;;;5032554;28;20028;-54
2023/12/12 08:39:00;;;;;;;28.40;7.25;;;8.30;99.90;;;;;;5031544;28;20033;-54
2023/12/12 08:41:30;;;;;;;21.50;8.02;;;8.20;99.90;;;;;;5031315;28;20030;-54
2023/12/12 08:43:57;;;;;;;21.90;6.28;;;8.30;99.90;;;;;;5030651;28;20541;-54
2023/12/12 08:46:26;;;;;;;22.88;6.07;;;8.30;99.90;;;;;;5032368;28;20502;-54
2023/12/12 08:48:58;;;;;;;23.10;6.95;;;8.30;99.90;;;;;;5031418;28;20026;-54
2023/12/12 08:51:26;;;;;;;18.65;6.65;;;8.30;99.90;;;;;;5031967;28;20529;-54
2023/12/12 08:53:52;;;;;;;35.33;7.40;;;8.30;99.90;;;;;;5032829;28;20033;-53
2023/12/12 08:56:18;;;;;;;22.08;7.72;;;8.40;99.90;;;;;;5032405;28;20060;-55
2023/12/12 08:58:45;;;;;;;35.95;8.55;;;8.40;99.90;;;;;;5031783;28;20037;-53
2023/12/12 09:01:11;;;;;;;28.95;6.93;;;8.50;99.90;;;;;;5032507;28;20021;-55
2023/12/12 09:03:37;;;;;;;27.23;7.22;;;8.50;99.90;;;;;;5032634;28;20037;-54
2023/12/12 09:06:04;;;;;;;34.90;7.03;;;8.50;99.90;;;;;;5031466;28;20083;-56
2023/12/12 09:08:29;;;;;;;24.48;7.57;;;8.60;99.90;;;;;;5031781;28;20018;-53
2023/12/12 09:10:55;;;;;;;23.05;6.63;;;8.70;99.90;;;;;;5026440;28;20444;-55
2023/12/12 09:13:22;;;;;;;25.92;6.68;;;8.70;99.90;;;;;;5031994;28;20383;-52
2023/12/12 09:15:47;;;;;;;24.27;6.13;;;8.70;99.90;;;;;;5032601;28;20032;-53
2023/12/12 09:18:13;;;;;;;24.85;6.72;;;8.70;99.90;;;;;;5032229;28;20396;-52
2023/12/12 09:20:39;;;;;;;21.80;5.03;;;8.70;99.90;;;;;;5032103;28;20033;-52
2023/12/12 09:23:04;;;;;;;19.88;5.22;;;8.70;99.90;;;;;;5032169;28;20042;-55
2023/12/12 09:25:30;;;;;;;30.15;7.68;;;8.80;99.90;;;;;;5032516;28;20053;-51
2023/12/12 09:27:56;;;;;;;16.90;4.53;;;8.80;99.90;;;;;;5032130;28;20021;-54
2023/12/12 09:30:22;;;;;;;31.77;5.22;;;8.80;99.90;;;;;;5032105;28;20059;-53
2023/12/12 09:32:48;;;;;;;12.68;4.68;;;8.80;99.90;;;;;;5032615;28;20030;-55
2023/12/12 09:35:14;;;;;;;15.48;4.35;;;8.80;99.90;;;;;;5031956;28;20049;-54
2023/12/12 09:37:40;;;;;;;18.23;5.15;;;8.90;99.90;;;;;;5032073;28;20022;-56
2023/12/12 09:40:07;;;;;;;24.38;5.40;;;8.90;99.90;;;;;;5032478;28;20018;-51
2023/12/12 09:42:34;;;;;;;19.63;4.95;;;8.80;99.90;;;;;;5032003;28;20028;-54
2023/12/12 09:45:03;;;;;;;10.50;3.95;;;8.80;99.90;;;;;;5032164;28;20108;-53
2023/12/12 09:47:31;;;;;;;30.73;5.30;;;8.80;99.90;;;;;;5029002;28;20018;-54
2023/12/12 09:49:58;;;;;;;12.60;3.13;;;8.80;99.90;;;;;;5016118;28;20037;-53
2023/12/12 09:52:34;;;;;;;18.08;3.30;;;8.80;99.90;;;;;;5021309;28;20698;-55
2023/12/12 09:55:00;;;;;;;21.77;4.45;;;8.90;99.90;;;;;;5035679;28;20112;-53
2023/12/12 09:57:29;;;;;;;24.70;3.95;;;8.90;99.90;;;;;;5035730;28;20029;-57
2023/12/12 09:59:55;;;;;;;19.40;3.97;;;9.00;99.90;;;;;;5035221;28;20022;-52
2023/12/12 10:02:26;;;;;;;13.48;4.63;;;9.00;99.90;;;;;;5035543;28;20105;-52
2023/12/12 10:04:52;;;;;;;18.83;4.10;;;9.00;99.90;;;;;;5035872;28;20484;-54
2023/12/12 10:07:19;;;;;;;21.30;3.63;;;9.10;99.90;;;;;;5035717;28;20491;-54
2023/12/12 10:09:46;;;;;;;19.63;5.28;;;9.20;99.90;;;;;;5035522;28;20021;-55
2023/12/12 10:12:12;;;;;;;25.25;4.40;;;9.30;99.90;;;;;;5035582;28;20068;-53
2023/12/12 10:14:40;;;;;;;17.23;3.45;;;9.40;99.90;;;;;;5035155;28;20055;-54
2023/12/12 10:17:10;;;;;;;26.77;5.07;;;9.40;99.90;;;;;;5035559;28;20117;-54
2023/12/12 10:19:37;;;;;;;20.05;3.78;;;9.50;99.90;;;;;;5034075;28;20033;-54
2023/12/12 10:22:07;;;;;;;12.60;3.92;;;9.50;99.90;;;;;;5035220;28;20038;-53
2023/12/12 10:24:33;;;;;;;26.67;4.05;;;9.50;99.90;;;;;;5035346;28;20361;-54
2023/12/12 10:26:59;;;;;;;15.73;4.65;;;9.50;99.90;;;;;;5035418;28;20101;-54
2023/12/12 10:29:25;;;;;;;13.90;4.07;;;9.60;99.90;;;;;;5035005;28;20029;-53
2023/12/12 10:31:52;;;;;;;17.38;4.03;;;9.70;99.90;;;;;;5035073;28;20022;-55
2023/12/12 10:34:19;;;;;;;26.60;4.30;;;9.80;99.90;;;;;;5035101;28;20068;-52
2023/12/12 10:36:50;;;;;;;13.80;3.53;;;9.90;99.90;;;;;;5034103;28;20057;-55
2023/12/12 10:39:16;;;;;;;18.42;3.80;;;10.10;99.90;;;;;;5034902;28;20029;-54
2023/12/12 10:41:55;;;;;;;28.23;4.57;;;10.10;99.90;;;;;;5033881;28;20018;-54
2023/12/12 10:44:29;;;;;;;399.70;134.57;;;10.20;99.90;;;;;;5034910;28;20380;-55
2023/12/12 10:46:55;;;;;;;68.32;26.45;;;10.20;99.90;;;;;;5035059;28;20491;-54
2023/12/12 10:49:24;;;;;;;21.77;7.78;;;10.20;99.90;;;;;;5034685;28;20438;-54
2023/12/12 10:51:49;;;;;;;20.35;5.20;;;10.30;99.90;;;;;;5034792;28;20023;-54
2023/12/12 10:54:17;;;;;;;16.63;4.05;;;10.40;99.90;;;;;;5034556;28;20026;-54
2023/12/12 10:56:46;;;;;;;17.17;4.10;;;10.50;99.90;;;;;;5034418;28;20052;-53
2023/12/12 10:59:16;;;;;;;24.55;7.97;;;10.60;99.90;;;;;;5034363;28;20439;-54
2023/12/12 11:01:46;;;;;;;17.98;4.78;;;10.70;99.90;;;;;;5034643;28;20537;-54
2023/12/12 11:04:14;;;;;;;20.65;4.88;;;10.70;99.90;;;;;;5034167;28;20498;-54
2023/12/12 11:06:42;;;;;;;25.80;4.60;;;10.80;99.90;;;;;;5034830;28;20464;-53
2023/12/12 11:09:08;;;;;;;15.27;3.85;;;10.80;99.90;;;;;;5034340;28;20109;-52
2023/12/12 11:11:35;;;;;;;17.75;5.78;;;10.80;99.90;;;;;;5034285;28;20128;-53
2023/12/12 11:14:02;;;;;;;14.35;5.10;;;10.80;99.90;;;;;;5034547;28;20029;-53
2023/12/12 11:16:30;;;;;;;20.25;4.47;;;10.90;99.90;;;;;;5034291;28;20399;-52
2023/12/12 11:18:57;;;;;;;14.38;4.22;;;10.90;99.90;;;;;;5029665;28;20112;-50
2023/12/12 11:21:49;;;;;;;11.43;4.25;;;10.90;99.90;;;;;;5032509;28;20391;-50
2023/12/12 11:24:16;;;;;;;20.65;5.13;;;10.90;99.90;;;;;;5034183;28;20087;-53
2023/12/12 11:26:44;;;;;;;11.75;4.30;;;10.90;99.90;;;;;;5033657;28;20096;-54
2023/12/12 11:29:23;;;;;;;10.07;3.75;;;10.90;99.90;;;;;;5034286;28;20033;-53
2023/12/12 11:32:00;;;;;;;13.38;4.68;;;10.90;99.90;;;;;;5033858;28;20505;-52
2023/12/12 11:34:34;;;;;;;18.92;5.07;;;11.00;99.90;;;;;;5021003;28;20021;-55
2023/12/12 11:37:00;;;;;;;20.50;4.25;;;11.00;99.90;;;;;;5033907;28;20463;-53
2023/12/12 11:39:44;;;;;;;29.33;5.60;;;11.00;99.90;;;;;;5033279;28;20021;-50
2023/12/12 11:42:21;;;;;;;20.42;4.63;;;11.00;99.90;;;;;;5033979;28;20033;-52
2023/12/12 11:44:55;;;;;;;11.43;3.97;;;11.00;99.90;;;;;;5033690;28;20387;-54
2023/12/12 11:47:41;;;;;;;26.67;4.22;;;11.10;99.90;;;;;;5033100;28;20029;-55
2023/12/12 11:50:14;;;;;;;21.23;4.22;;;11.20;99.90;;;;;;5033298;28;20041;-54
2023/12/12 11:52:40;;;;;;;16.13;5.32;;;11.30;99.90;;;;;;5032451;28;20087;-55
2023/12/12 11:55:06;;;;;;;21.30;4.75;;;11.30;99.90;;;;;;5033439;28;20029;-53
2023/12/12 11:57:32;;;;;;;21.23;4.57;;;11.40;99.90;;;;;;5033638;28;20577;-54
2023/12/12 12:00:05;;;;;;;13.88;3.85;;;11.40;99.90;;;;;;5033288;28;20112;-50
2023/12/12 12:02:31;;;;;;;18.65;4.50;;;11.40;99.90;;;;;;5033003;28;20032;-54
2023/12/12 12:04:58;;;;;;;16.17;4.00;;;11.40;99.90;;;;;;5031574;28;20013;-53
2023/12/12 12:07:24;;;;;;;18.17;4.80;;;11.50;99.90;;;;;;5033211;28;20539;-55
2023/12/12 12:09:52;;;;;;;18.15;4.97;;;11.50;99.90;;;;;;5033023;28;20052;-55
2023/12/12 12:12:18;;;;;;;16.60;5.15;;;11.50;99.90;;;;;;5032617;28;20060;-56
2023/12/12 12:14:44;;;;;;;14.73;4.32;;;11.50;99.90;;;;;;5031845;28;20049;-54
2023/12/12 12:17:10;;;;;;;16.90;3.67;;;11.50;99.90;;;;;;5033606;28;20561;-54
2023/12/12 12:19:37;;;;;;;10.07;3.42;;;11.40;99.90;;;;;;5032973;28;20109;-56
2023/12/12 12:22:07;;;;;;;15.70;4.20;;;11.50;99.90;;;;;;5032576;28;20483;-53
2023/12/12 12:24:44;;;;;;;15.75;3.17;;;11.50;99.90;;;;;;5032991;28;20480;-53
2023/12/12 12:27:10;;;;;;;18.35;3.50;;;11.50;99.90;;;;;;5033185;28;20021;-54
2023/12/12 12:29:35;;;;;;;13.63;3.88;;;11.50;99.90;;;;;;5032784;28;20395;-55
2023/12/12 12:32:11;;;;;;;9.27;3.55;;;11.60;99.90;;;;;;5032695;28;20038;-53
2023/12/12 12:34:37;;;;;;;17.55;3.28;;;11.70;99.90;;;;;;5033057;28;20500;-55
2023/12/12 12:37:03;;;;;;;17.98;3.92;;;11.70;99.90;;;;;;5031715;28;20395;-55
2023/12/12 12:39:29;;;;;;;20.35;3.50;;;11.70;99.90;;;;;;5032427;28;20029;-54
2023/12/12 12:41:58;;;;;;;15.02;2.92;;;11.70;99.90;;;;;;5033203;28;20022;-55
2023/12/12 12:44:31;;;;;;;17.75;3.25;;;11.70;99.90;;;;;;5031757;28;20021;-54
2023/12/12 12:46:57;;;;;;;7.20;2.88;;;11.60;99.90;;;;;;5032679;28;20026;-56